createdAt,value
2023-04-22T00:11:18.795Z,61.19
2023-04-22T00:41:22.471Z,59.53
2023-04-22T01:11:26.341Z,61.92
2023-04-22T01:41:30.088Z,61.24
2023-04-22T02:11:33.802Z,61.03
2023-04-22T02:41:37.279Z,62.67
2023-04-22T03:11:41.490Z,60.74
2023-04-22T03:41:44.787Z,68.84
2023-04-22T04:11:48.365Z,58.15
2023-04-22T04:41:52.063Z,57.85
2023-04-22T05:11:55.287Z,62.29
2023-04-22T05:41:58.351Z,59.76
2023-04-22T06:12:01.832Z,57.66
2023-04-22T06:42:04.725Z,60.28
2023-04-22T07:12:08.269Z,62.96
2023-04-22T07:42:11.247Z,62.12
2023-04-22T08:12:15.549Z,61.64
2023-04-22T08:42:18.390Z,52.79
2023-04-22T09:12:22.050Z,51.94
2023-04-22T09:42:25.026Z,48.15
2023-04-22T10:12:35.365Z,44.23
2023-04-22T10:42:39.748Z,39.45
2023-04-22T11:12:43.566Z,39.22
2023-04-22T11:42:46.886Z,37.81
2023-04-22T12:12:50.351Z,34.47
2023-04-22T12:42:53.755Z,32.98
2023-04-22T13:13:06.064Z,33.50
2023-04-22T13:43:19.482Z,33.04
2023-04-22T14:13:22.784Z,32.81
2023-04-22T14:43:26.329Z,32.47
2023-04-22T15:13:30.197Z,32.47
2023-04-22T15:43:33.494Z,32.80
2023-04-22T16:13:37.309Z,33.87
2023-04-22T16:43:41.380Z,35.13
2023-04-22T17:13:44.774Z,36.71
2023-04-22T17:43:47.988Z,38.25
2023-04-22T18:13:51.352Z,43.67
2023-04-22T18:43:55.309Z,46.07
2023-04-22T19:13:58.469Z,47.08
2023-04-22T19:44:02.031Z,48.85
2023-04-22T20:14:05.105Z,50.58
2023-04-22T20:44:08.610Z,51.74
2023-04-22T21:14:11.858Z,53.85
2023-04-22T21:44:15.065Z,54.56
2023-04-22T22:14:18.625Z,54.94
2023-04-22T22:44:22.113Z,56.55
2023-04-22T23:14:25.561Z,56.99
2023-04-22T23:44:28.971Z,58.92
